createdAt,value
2017-09-12T00:00:39.864Z,0
2017-09-12T00:01:48.692Z,0
2017-09-12T00:02:57.844Z,0
2017-09-12T00:04:06.674Z,0
2017-09-12T00:05:15.503Z,0
2017-09-12T00:06:24.333Z,0
2017-09-12T00:07:33.159Z,0
2017-09-12T00:08:41.988Z,0
2017-09-12T00:09:50.814Z,0
2017-09-12T00:10:59.642Z,0
2017-09-12T00:12:08.474Z,0
2017-09-12T00:13:17.301Z,0
2017-09-12T00:14:26.130Z,0
2017-09-12T00:15:34.957Z,0
2017-09-12T00:16:43.784Z,0
2017-09-12T00:17:52.614Z,0
2017-09-12T00:19:01.440Z,0
2017-09-12T00:20:10.268Z,0
2017-09-12T00:21:19.100Z,0
2017-09-12T00:22:27.931Z,0
2017-09-12T00:23:37.084Z,0
2017-09-12T00:24:45.919Z,0
2017-09-12T00:25:54.743Z,0
2017-09-12T00:27:03.568Z,0
2017-09-12T00:28:12.393Z,0
2017-09-12T00:29:21.228Z,0
2017-09-12T00:30:30.052Z,0
2017-09-12T00:31:38.884Z,0
2017-09-12T00:32:47.713Z,0
2017-09-12T00:33:56.543Z,0
2017-09-12T00:35:05.368Z,0
2017-09-12T00:36:14.200Z,0
2017-09-12T00:37:23.032Z,0
2017-09-12T00:38:31.862Z,0
2017-09-12T00:39:40.691Z,0
2017-09-12T00:40:49.514Z,0
2017-09-12T00:41:58.347Z,0
2017-09-12T00:43:07.179Z,0
2017-09-12T00:44:16.001Z,0
2017-09-12T00:45:24.855Z,0
2017-09-12T00:46:33.658Z,0
2017-09-12T00:47:42.486Z,0
2017-09-12T00:48:51.315Z,0
2017-09-12T00:50:00.148Z,0
2017-09-12T00:51:08.970Z,0
2017-09-12T00:52:17.802Z,0
2017-09-12T00:53:26.629Z,0
2017-09-12T00:54:35.460Z,0
2017-09-12T00:55:44.294Z,0
2017-09-12T00:56:53.125Z,0
2017-09-12T00:58:01.953Z,0
2017-09-12T00:59:10.784Z,0
2017-09-12T01:00:19.611Z,0
2017-09-12T01:01:28.437Z,0
2017-09-12T01:02:37.266Z,0
2017-09-12T01:03:46.093Z,0
2017-09-12T01:04:54.920Z,0
2017-09-12T01:06:04.074Z,0
2017-09-12T01:07:12.900Z,0
2017-09-12T01:08:21.731Z,0
2017-09-12T01:09:30.556Z,0
2017-09-12T01:10:39.384Z,0
2017-09-12T01:11:48.211Z,0
2017-09-12T01:12:57.038Z,0
2017-09-12T01:14:05.868Z,0
2017-09-12T01:15:14.696Z,0
2017-09-12T01:16:23.852Z,0
2017-09-12T01:17:32.683Z,0
2017-09-12T01:18:41.509Z,0
2017-09-12T01:19:50.334Z,0
2017-09-12T01:20:59.166Z,0
2017-09-12T01:22:07.989Z,0
2017-09-12T01:23:16.820Z,0
2017-09-12T01:24:25.649Z,0
2017-09-12T01:25:34.475Z,0
2017-09-12T01:26:43.306Z,0
2017-09-12T01:27:52.137Z,0
2017-09-12T01:29:00.965Z,0
2017-09-12T01:30:09.790Z,0
2017-09-12T01:31:18.619Z,0
2017-09-12T01:32:27.449Z,0
2017-09-12T01:33:36.273Z,0
2017-09-12T01:34:45.099Z,0
2017-09-12T01:35:53.922Z,0
2017-09-12T01:37:02.754Z,0
2017-09-12T01:38:11.579Z,0
2017-09-12T01:39:20.410Z,0
2017-09-12T01:40:29.234Z,0
2017-09-12T01:41:38.061Z,0
2017-09-12T01:42:46.894Z,0
2017-09-12T01:43:55.716Z,0
2017-09-12T01:45:04.548Z,0
2017-09-12T01:46:13.371Z,0
2017-09-12T01:47:22.200Z,0
2017-09-12T01:48:31.024Z,0
2017-09-12T01:49:39.858Z,0
2017-09-12T01:50:48.686Z,0
2017-09-12T01:51:57.515Z,0
2017-09-12T01:53:06.336Z,0
2017-09-12T01:54:15.161Z,0
2017-09-12T01:55:23.997Z,0
2017-09-12T01:56:32.824Z,0
2017-09-12T01:57:41.649Z,0
2017-09-12T01:58:50.478Z,0
2017-09-12T01:59:59.302Z,0
2017-09-12T02:01:08.129Z,0
2017-09-12T02:02:16.957Z,0
2017-09-12T02:03:25.787Z,0
2017-09-12T02:04:34.609Z,0
2017-09-12T02:05:43.440Z,0
2017-09-12T02:06:52.266Z,0
2017-09-12T02:08:01.095Z,0
2017-09-12T02:09:09.926Z,0
2017-09-12T02:10:18.754Z,0
2017-09-12T02:11:27.582Z,0
2017-09-12T02:12:36.406Z,0
2017-09-12T02:13:45.239Z,0
2017-09-12T02:14:54.388Z,0
2017-09-12T02:16:03.216Z,0
2017-09-12T02:17:12.046Z,0
2017-09-12T02:18:20.873Z,0
2017-09-12T02:19:29.695Z,0
2017-09-12T02:20:38.527Z,0
2017-09-12T02:21:47.350Z,0
2017-09-12T02:22:56.182Z,0
2017-09-12T02:24:05.010Z,0
2017-09-12T02:25:13.832Z,0
2017-09-12T02:26:22.660Z,0
2017-09-12T02:27:31.488Z,0
2017-09-12T02:28:40.318Z,0
2017-09-12T02:29:49.138Z,0
2017-09-12T02:30:57.968Z,0
2017-09-12T02:32:06.791Z,0
2017-09-12T02:33:15.617Z,0
2017-09-12T02:34:24.449Z,0
2017-09-12T02:35:33.272Z,0
2017-09-12T02:36:42.101Z,0
2017-09-12T02:37:50.927Z,0
2017-09-12T02:38:59.762Z,0
2017-09-12T02:40:08.593Z,0
2017-09-12T02:41:17.421Z,0
2017-09-12T02:42:26.247Z,0
2017-09-12T02:43:35.076Z,0
2017-09-12T02:44:43.904Z,0
2017-09-12T02:45:52.730Z,0
2017-09-12T02:47:01.558Z,0
2017-09-12T02:48:10.385Z,0
2017-09-12T02:49:19.210Z,0
2017-09-12T02:50:28.076Z,0
2017-09-12T02:51:36.870Z,0
2017-09-12T02:52:45.700Z,0
2017-09-12T02:53:54.527Z,0
2017-09-12T02:55:03.353Z,0
2017-09-12T02:56:12.183Z,0
2017-09-12T02:57:21.008Z,0
2017-09-12T02:58:29.839Z,0
2017-09-12T02:59:38.665Z,0
2017-09-12T03:00:47.491Z,0
2017-09-12T03:01:56.318Z,0
2017-09-12T03:03:05.150Z,0
2017-09-12T03:04:13.976Z,0
2017-09-12T03:05:22.806Z,0
2017-09-12T03:06:31.631Z,0
2017-09-12T03:07:40.453Z,0
2017-09-12T03:08:49.284Z,0
2017-09-12T03:09:58.113Z,0
2017-09-12T03:11:06.938Z,0
2017-09-12T03:12:15.769Z,0
2017-09-12T03:13:24.589Z,0
2017-09-12T03:14:33.412Z,0
2017-09-12T03:15:42.244Z,0
2017-09-12T03:16:51.073Z,0
2017-09-12T03:18:00.224Z,0
2017-09-12T03:19:09.052Z,0
2017-09-12T03:20:17.883Z,0
2017-09-12T03:21:26.710Z,0
2017-09-12T03:22:35.542Z,0
2017-09-12T03:23:44.363Z,0
2017-09-12T03:24:53.553Z,0
2017-09-12T03:26:02.380Z,0
2017-09-12T03:27:11.209Z,0
2017-09-12T03:28:20.040Z,0
2017-09-12T03:29:28.872Z,0
2017-09-12T03:30:37.700Z,0
2017-09-12T03:31:46.527Z,0
2017-09-12T03:32:55.348Z,0
2017-09-12T03:34:04.179Z,0
2017-09-12T03:35:13.004Z,0
2017-09-12T03:36:21.837Z,0
2017-09-12T03:37:30.663Z,0
2017-09-12T03:38:39.494Z,0
2017-09-12T03:39:48.642Z,0
2017-09-12T03:40:57.470Z,0
2017-09-12T03:42:06.299Z,0
2017-09-12T03:43:15.121Z,0
2017-09-12T03:44:23.948Z,0
2017-09-12T03:45:32.778Z,0
2017-09-12T03:46:41.604Z,0
2017-09-12T03:47:50.437Z,0
2017-09-12T03:48:59.260Z,0
2017-09-12T03:50:08.094Z,0
2017-09-12T03:51:16.919Z,0
2017-09-12T03:52:25.745Z,0
2017-09-12T03:53:34.572Z,0
2017-09-12T03:54:43.403Z,0
2017-09-12T03:55:52.229Z,0
2017-09-12T03:57:01.071Z,0
2017-09-12T03:58:09.917Z,0
2017-09-12T03:59:18.764Z,0
2017-09-12T04:00:27.607Z,0
2017-09-12T04:01:36.455Z,0
2017-09-12T04:02:45.304Z,0
2017-09-12T04:03:54.147Z,0
2017-09-12T04:05:02.997Z,0
2017-09-12T04:06:11.843Z,0
2017-09-12T04:07:20.741Z,0
2017-09-12T04:08:29.584Z,0
2017-09-12T04:09:38.428Z,0
2017-09-12T04:10:47.276Z,0
2017-09-12T04:11:56.121Z,0
2017-09-12T04:13:04.970Z,0
2017-09-12T04:14:13.821Z,0
2017-09-12T04:15:22.666Z,0
2017-09-12T04:16:31.511Z,0
2017-09-12T04:17:40.359Z,0
2017-09-12T04:18:49.202Z,0
2017-09-12T04:19:58.050Z,0
2017-09-12T04:21:06.898Z,0
2017-09-12T04:22:15.745Z,0
2017-09-12T04:23:24.911Z,0
2017-09-12T04:24:33.761Z,0
2017-09-12T04:25:42.606Z,0
2017-09-12T04:26:51.455Z,0
2017-09-12T04:28:00.303Z,0
2017-09-12T04:29:09.149Z,0
2017-09-12T04:30:17.997Z,0
2017-09-12T04:31:26.846Z,0
2017-09-12T04:32:35.692Z,0
2017-09-12T04:33:44.538Z,0
2017-09-12T04:34:53.386Z,0
2017-09-12T04:36:02.230Z,0
2017-09-12T04:37:11.077Z,0
2017-09-12T04:38:19.924Z,0
2017-09-12T04:39:28.771Z,0
2017-09-12T04:40:37.616Z,0
2017-09-12T04:41:46.464Z,0
2017-09-12T04:42:55.310Z,0
2017-09-12T04:44:04.153Z,0
2017-09-12T04:45:13.002Z,0
2017-09-12T04:46:21.851Z,0
2017-09-12T04:47:30.694Z,0
2017-09-12T04:48:39.548Z,0
2017-09-12T04:49:48.386Z,0
2017-09-12T04:50:57.228Z,0
2017-09-12T04:52:06.077Z,0
2017-09-12T04:53:14.926Z,0
2017-09-12T04:54:23.772Z,0
2017-09-12T04:55:32.620Z,0
2017-09-12T04:56:41.464Z,0
2017-09-12T04:57:50.310Z,0
2017-09-12T04:58:59.158Z,0
2017-09-12T05:00:08.005Z,5
2017-09-12T05:01:16.851Z,5
2017-09-12T05:02:25.699Z,0
2017-09-12T05:03:34.544Z,0
2017-09-12T05:04:43.389Z,5
2017-09-12T05:05:52.236Z,5
2017-09-12T05:07:01.084Z,5
2017-09-12T05:08:09.930Z,5
2017-09-12T05:09:18.775Z,5
2017-09-12T05:10:27.624Z,5
2017-09-12T05:11:36.796Z,5
2017-09-12T05:12:45.643Z,5
2017-09-12T05:13:54.492Z,5
2017-09-12T05:15:03.338Z,5
2017-09-12T05:16:12.183Z,5
2017-09-12T05:17:21.034Z,5
2017-09-12T05:18:29.882Z,5
2017-09-12T05:19:38.731Z,10
2017-09-12T05:20:47.580Z,5
2017-09-12T05:21:56.428Z,5
2017-09-12T05:23:05.274Z,5
2017-09-12T05:24:14.452Z,5
2017-09-12T05:25:23.297Z,5
2017-09-12T05:26:32.146Z,5
2017-09-12T05:27:40.995Z,10
2017-09-12T05:28:49.838Z,10
2017-09-12T05:29:58.685Z,10
2017-09-12T05:31:07.533Z,10
2017-09-12T05:32:16.378Z,10
2017-09-12T05:33:25.226Z,10
2017-09-12T05:34:34.076Z,10
2017-09-12T05:35:42.919Z,10
2017-09-12T05:36:51.768Z,15
2017-09-12T05:38:00.616Z,10
2017-09-12T05:39:09.461Z,10
2017-09-12T05:40:18.311Z,10
2017-09-12T05:41:27.487Z,10
2017-09-12T05:42:36.338Z,10
2017-09-12T05:43:45.180Z,15
2017-09-12T05:44:54.029Z,15
2017-09-12T05:46:02.874Z,15
2017-09-12T05:47:11.719Z,10
2017-09-12T05:48:20.568Z,15
2017-09-12T05:49:29.414Z,15
2017-09-12T05:50:38.584Z,15
2017-09-12T05:51:47.434Z,15
2017-09-12T05:52:56.282Z,20
2017-09-12T05:54:05.129Z,15
2017-09-12T05:55:13.978Z,15
2017-09-12T05:56:22.826Z,15
2017-09-12T05:57:31.673Z,20
2017-09-12T05:58:40.520Z,15
2017-09-12T05:59:49.369Z,15
2017-09-12T06:00:58.215Z,15
2017-09-12T06:02:07.065Z,15
2017-09-12T06:03:15.911Z,20
2017-09-12T06:04:24.756Z,20
2017-09-12T06:05:33.603Z,20
2017-09-12T06:06:42.450Z,20
2017-09-12T06:07:51.622Z,20
2017-09-12T06:09:00.465Z,20
2017-09-12T06:10:09.642Z,20
2017-09-12T06:11:18.490Z,20
2017-09-12T06:12:27.333Z,25
2017-09-12T06:13:36.185Z,25
2017-09-12T06:14:45.031Z,25
2017-09-12T06:15:53.877Z,25
2017-09-12T06:17:02.726Z,25
2017-09-12T06:18:11.574Z,25
2017-09-12T06:19:20.421Z,25
2017-09-12T06:20:29.266Z,25
2017-09-12T06:21:38.115Z,30
2017-09-12T06:22:46.965Z,25
2017-09-12T06:23:55.813Z,30
2017-09-12T06:25:04.661Z,30
2017-09-12T06:26:13.504Z,30
2017-09-12T06:27:22.350Z,30
2017-09-12T06:28:31.200Z,30
2017-09-12T06:29:40.048Z,35
2017-09-12T06:30:48.893Z,30
2017-09-12T06:31:57.741Z,30
2017-09-12T06:33:06.587Z,30
2017-09-12T06:34:15.431Z,30
2017-09-12T06:35:24.282Z,30
2017-09-12T06:36:33.132Z,35
2017-09-12T06:37:42.302Z,35
2017-09-12T06:38:51.152Z,30
2017-09-12T06:40:00.000Z,30
2017-09-12T06:41:09.169Z,25
2017-09-12T06:42:18.018Z,25
2017-09-12T06:43:26.867Z,30
2017-09-12T06:44:35.715Z,35
2017-09-12T06:45:44.566Z,35
2017-09-12T06:46:53.417Z,35
2017-09-12T06:48:02.262Z,35
2017-09-12T06:49:11.112Z,35
2017-09-12T06:50:19.961Z,35
2017-09-12T06:51:28.809Z,40
2017-09-12T06:52:37.982Z,45
2017-09-12T06:53:46.832Z,40
2017-09-12T06:54:55.677Z,40
2017-09-12T06:56:04.526Z,45
2017-09-12T06:57:13.376Z,40
2017-09-12T06:58:22.222Z,45
2017-09-12T06:59:31.069Z,45
2017-09-12T07:00:39.916Z,45
2017-09-12T07:01:48.762Z,45
2017-09-12T07:02:57.613Z,45
2017-09-12T07:04:06.463Z,40
2017-09-12T07:05:15.310Z,40
2017-09-12T07:06:24.158Z,40
2017-09-12T07:07:33.006Z,40
2017-09-12T07:08:41.852Z,40
2017-09-12T07:09:50.700Z,45
2017-09-12T07:10:59.547Z,50
2017-09-12T07:12:08.398Z,50
2017-09-12T07:13:17.244Z,50
2017-09-12T07:14:26.094Z,50
2017-09-12T07:15:34.939Z,50
2017-09-12T07:16:43.791Z,50
2017-09-12T07:17:52.641Z,50
2017-09-12T07:19:01.488Z,50
2017-09-12T07:20:10.335Z,55
2017-09-12T07:21:19.184Z,55
2017-09-12T07:22:28.035Z,50
2017-09-12T07:23:36.883Z,50
2017-09-12T07:24:45.735Z,50
2017-09-12T07:25:54.580Z,50
2017-09-12T07:27:03.428Z,50
2017-09-12T07:28:12.284Z,50
2017-09-12T07:29:21.130Z,50
2017-09-12T07:30:29.982Z,50
2017-09-12T07:31:38.832Z,50
2017-09-12T07:32:47.679Z,50
2017-09-12T07:33:56.528Z,55
2017-09-12T07:35:05.379Z,55
2017-09-12T07:36:14.229Z,55
2017-09-12T07:37:23.074Z,50
2017-09-12T07:38:31.924Z,50
2017-09-12T07:39:40.771Z,55
2017-09-12T07:40:49.617Z,55
2017-09-12T07:41:58.466Z,50
2017-09-12T07:43:07.316Z,50
2017-09-12T07:44:16.162Z,50
2017-09-12T07:45:25.015Z,55
2017-09-12T07:46:33.862Z,55
2017-09-12T07:47:43.039Z,50
2017-09-12T07:48:51.887Z,40
2017-09-12T07:50:00.738Z,45
2017-09-12T07:51:09.909Z,50
2017-09-12T07:52:19.082Z,55
2017-09-12T07:53:27.926Z,50
2017-09-12T07:54:36.771Z,50
2017-09-12T07:55:45.621Z,45
2017-09-12T07:56:54.471Z,45
2017-09-12T07:58:03.318Z,45
2017-09-12T07:59:12.171Z,50
2017-09-12T08:00:21.016Z,55
2017-09-12T08:01:29.867Z,55
2017-09-12T08:02:38.718Z,50
2017-09-12T08:03:47.563Z,50
2017-09-12T08:04:56.417Z,55
2017-09-12T08:06:05.265Z,50
2017-09-12T08:07:14.120Z,45
2017-09-12T08:08:22.964Z,45
2017-09-12T08:09:31.811Z,40
2017-09-12T08:10:40.658Z,40
2017-09-12T08:11:49.506Z,40
2017-09-12T08:12:58.357Z,40
2017-09-12T08:14:07.206Z,45
2017-09-12T08:15:16.058Z,55
2017-09-12T08:16:24.905Z,55
2017-09-12T08:17:33.751Z,55
2017-09-12T08:18:42.604Z,55
2017-09-12T08:19:51.452Z,55
2017-09-12T08:21:00.298Z,55
2017-09-12T08:22:09.149Z,50
2017-09-12T08:23:17.998Z,50
2017-09-12T08:24:26.844Z,50
2017-09-12T08:25:35.695Z,50
2017-09-12T08:26:44.546Z,50
2017-09-12T08:27:53.395Z,50
2017-09-12T08:29:02.252Z,50
2017-09-12T08:30:11.099Z,50
2017-09-12T08:31:19.945Z,45
2017-09-12T08:32:28.794Z,45
2017-09-12T08:33:37.647Z,45
2017-09-12T08:34:46.494Z,55
2017-09-12T08:35:55.346Z,55
2017-09-12T08:37:04.192Z,55
2017-09-12T08:38:13.041Z,50
2017-09-12T08:39:21.891Z,50
2017-09-12T08:40:30.741Z,60
2017-09-12T08:41:39.587Z,55
2017-09-12T08:42:48.437Z,55
2017-09-12T08:43:57.288Z,65
2017-09-12T08:45:06.132Z,65
2017-09-12T08:46:14.980Z,60
2017-09-12T08:47:23.840Z,60
2017-09-12T08:48:32.687Z,50
2017-09-12T08:49:41.533Z,50
2017-09-12T08:50:50.381Z,45
2017-09-12T08:51:59.230Z,40
2017-09-12T08:53:08.080Z,40
2017-09-12T08:54:16.929Z,45
2017-09-12T08:55:25.775Z,35
2017-09-12T08:56:34.625Z,35
2017-09-12T08:57:43.472Z,35
2017-09-12T08:58:52.321Z,30
2017-09-12T09:00:01.171Z,30
2017-09-12T09:01:10.023Z,35
2017-09-12T09:02:18.881Z,40
2017-09-12T09:03:27.715Z,40
2017-09-12T09:04:36.566Z,45
2017-09-12T09:05:45.413Z,45
2017-09-12T09:06:54.264Z,40
2017-09-12T09:08:03.117Z,40
2017-09-12T09:09:11.963Z,45
2017-09-12T09:10:20.809Z,50
2017-09-12T09:11:29.660Z,60
2017-09-12T09:12:38.508Z,60
2017-09-12T09:13:47.357Z,55
2017-09-12T09:14:56.206Z,55
2017-09-12T09:16:05.051Z,50
2017-09-12T09:17:13.895Z,55
2017-09-12T09:18:22.751Z,50
2017-09-12T09:19:31.593Z,50
2017-09-12T09:20:40.443Z,55
2017-09-12T09:21:49.293Z,60
2017-09-12T09:22:58.138Z,65
2017-09-12T09:24:06.988Z,70
2017-09-12T09:25:15.839Z,70
2017-09-12T09:26:24.690Z,70
2017-09-12T09:27:33.537Z,75
2017-09-12T09:28:42.387Z,70
2017-09-12T09:29:51.236Z,70
2017-09-12T09:31:00.083Z,70
2017-09-12T09:32:08.934Z,75
2017-09-12T09:33:17.782Z,70
2017-09-12T09:34:26.630Z,65
2017-09-12T09:35:35.481Z,65
2017-09-12T09:36:44.328Z,60
2017-09-12T09:37:53.177Z,55
2017-09-12T09:39:02.028Z,60
2017-09-12T09:40:10.880Z,60
2017-09-12T09:41:19.727Z,55
2017-09-12T09:42:28.575Z,45
2017-09-12T09:43:37.424Z,55
2017-09-12T09:44:46.271Z,50
2017-09-12T09:45:55.119Z,50
2017-09-12T09:47:03.971Z,55
2017-09-12T09:48:12.819Z,60
2017-09-12T09:49:21.671Z,55
2017-09-12T09:50:30.520Z,60
2017-09-12T09:51:39.368Z,55
2017-09-12T09:52:48.220Z,35
2017-09-12T09:53:57.069Z,45
2017-09-12T09:55:05.919Z,55
2017-09-12T09:56:14.774Z,75
2017-09-12T09:57:23.620Z,50
2017-09-12T09:58:32.468Z,40
2017-09-12T09:59:41.320Z,30
2017-09-12T10:00:50.170Z,55
2017-09-12T10:01:59.019Z,60
2017-09-12T10:03:08.188Z,50
2017-09-12T10:04:17.364Z,70
2017-09-12T10:05:26.210Z,60
2017-09-12T10:06:35.063Z,45
2017-09-12T10:07:43.913Z,65
2017-09-12T10:08:52.762Z,60
2017-09-12T10:10:01.609Z,60
2017-09-12T10:11:10.463Z,55
2017-09-12T10:12:19.314Z,55
2017-09-12T10:13:28.163Z,60
2017-09-12T10:14:37.018Z,70
2017-09-12T10:15:45.867Z,80
2017-09-12T10:16:54.716Z,70
2017-09-12T10:18:03.567Z,75
2017-09-12T10:19:12.415Z,75
2017-09-12T10:20:21.266Z,55
2017-09-12T10:21:30.119Z,50
2017-09-12T10:22:38.974Z,60
2017-09-12T10:23:47.817Z,75
2017-09-12T10:24:56.667Z,85
2017-09-12T10:26:05.516Z,80
2017-09-12T10:27:14.367Z,60
2017-09-12T10:28:23.218Z,45
2017-09-12T10:29:32.066Z,60
2017-09-12T10:30:40.914Z,60
2017-09-12T10:31:49.769Z,45
2017-09-12T10:32:58.613Z,30
2017-09-12T10:34:07.463Z,40
2017-09-12T10:35:16.314Z,45
2017-09-12T10:36:25.163Z,45
2017-09-12T10:37:34.010Z,40
2017-09-12T10:38:42.860Z,60
2017-09-12T10:39:51.710Z,80
2017-09-12T10:41:00.562Z,85
2017-09-12T10:42:09.414Z,80
2017-09-12T10:43:18.262Z,85
2017-09-12T10:44:27.114Z,90
2017-09-12T10:45:35.964Z,95
2017-09-12T10:46:44.815Z,80
2017-09-12T10:47:53.663Z,60
2017-09-12T10:49:02.514Z,60
2017-09-12T10:50:11.364Z,55
2017-09-12T10:51:20.212Z,75
2017-09-12T10:52:29.062Z,65
2017-09-12T10:53:37.913Z,70
2017-09-12T10:54:46.762Z,85
2017-09-12T10:55:55.615Z,75
2017-09-12T10:57:04.463Z,55
2017-09-12T10:58:13.314Z,70
2017-09-12T10:59:22.162Z,70
2017-09-12T11:00:31.012Z,45
2017-09-12T11:01:39.859Z,35
2017-09-12T11:02:48.709Z,45
2017-09-12T11:03:57.555Z,60
2017-09-12T11:05:06.407Z,50
2017-09-12T11:06:15.260Z,50
2017-09-12T11:07:24.111Z,55
2017-09-12T11:08:32.965Z,60
2017-09-12T11:09:41.808Z,55
2017-09-12T11:10:50.659Z,60
2017-09-12T11:11:59.510Z,65
2017-09-12T11:13:08.362Z,85
2017-09-12T11:14:17.213Z,50
2017-09-12T11:15:26.384Z,40
2017-09-12T11:16:35.234Z,55
2017-09-12T11:17:44.085Z,70
2017-09-12T11:18:52.934Z,75
2017-09-12T11:20:01.786Z,90
2017-09-12T11:21:10.636Z,55
2017-09-12T11:22:19.487Z,40
2017-09-12T11:23:28.334Z,60
2017-09-12T11:24:37.184Z,45
2017-09-12T11:25:46.031Z,45
2017-09-12T11:26:54.881Z,35
2017-09-12T11:28:03.735Z,30
2017-09-12T11:29:12.584Z,35
2017-09-12T11:30:21.435Z,45
2017-09-12T11:31:30.290Z,50
2017-09-12T11:32:39.139Z,40
2017-09-12T11:33:47.990Z,45
2017-09-12T11:34:56.839Z,35
2017-09-12T11:36:05.690Z,40
2017-09-12T11:37:14.538Z,45
2017-09-12T11:38:23.390Z,45
2017-09-12T11:39:32.239Z,65
2017-09-12T11:40:41.090Z,80
2017-09-12T11:41:49.945Z,90
2017-09-12T11:42:58.792Z,70
2017-09-12T11:44:07.643Z,50
2017-09-12T11:45:16.496Z,40
2017-09-12T11:46:25.344Z,50
2017-09-12T11:47:34.195Z,65
2017-09-12T11:48:43.047Z,65
2017-09-12T11:49:51.900Z,50
2017-09-12T11:51:01.070Z,55
2017-09-12T11:52:09.922Z,55
2017-09-12T11:53:18.775Z,55
2017-09-12T11:54:27.624Z,45
2017-09-12T11:55:36.475Z,70
2017-09-12T11:56:45.324Z,80
2017-09-12T11:57:54.176Z,65
2017-09-12T11:59:03.026Z,55
2017-09-12T12:00:11.874Z,45
2017-09-12T12:01:20.729Z,55
2017-09-12T12:02:29.575Z,40
2017-09-12T12:03:38.428Z,45
2017-09-12T12:04:47.280Z,60
2017-09-12T12:05:56.128Z,40
2017-09-12T12:07:04.974Z,40
2017-09-12T12:08:13.824Z,50
2017-09-12T12:09:22.671Z,60
2017-09-12T12:10:31.523Z,70
2017-09-12T12:11:40.374Z,75
2017-09-12T12:12:49.221Z,80
2017-09-12T12:13:58.071Z,75
2017-09-12T12:15:06.925Z,55
2017-09-12T12:16:15.776Z,60
2017-09-12T12:17:24.624Z,55
2017-09-12T12:18:33.474Z,50
2017-09-12T12:19:42.324Z,50
2017-09-12T12:20:51.175Z,55
2017-09-12T12:22:00.026Z,50
2017-09-12T12:23:08.873Z,55
2017-09-12T12:24:17.727Z,60
2017-09-12T12:25:26.585Z,55
2017-09-12T12:26:35.433Z,50
2017-09-12T12:27:44.281Z,55
2017-09-12T12:28:53.136Z,50
2017-09-12T12:30:01.987Z,45
2017-09-12T12:31:10.838Z,45
2017-09-12T12:32:19.693Z,45
2017-09-12T12:33:28.542Z,45
2017-09-12T12:34:37.390Z,50
2017-09-12T12:35:46.242Z,55
2017-09-12T12:36:55.095Z,60
2017-09-12T12:38:03.946Z,60
2017-09-12T12:39:12.797Z,55
2017-09-12T12:40:21.646Z,45
2017-09-12T12:41:30.495Z,40
2017-09-12T12:42:39.348Z,35
2017-09-12T12:43:48.200Z,40
2017-09-12T12:44:57.054Z,40
2017-09-12T12:46:05.907Z,35
2017-09-12T12:47:14.755Z,25
2017-09-12T12:48:23.608Z,25
2017-09-12T12:49:32.460Z,20
2017-09-12T12:50:41.313Z,20
2017-09-12T12:51:50.166Z,20
2017-09-12T12:52:59.019Z,20
2017-09-12T12:54:07.867Z,20
2017-09-12T12:55:16.716Z,25
2017-09-12T12:56:25.568Z,25
2017-09-12T12:57:34.420Z,25
2017-09-12T12:58:43.270Z,30
2017-09-12T12:59:52.125Z,35
2017-09-12T13:01:00.974Z,35
2017-09-12T13:02:09.822Z,40
2017-09-12T13:03:18.674Z,40
2017-09-12T13:04:27.525Z,45
2017-09-12T13:05:36.374Z,45
2017-09-12T13:06:45.227Z,45
2017-09-12T13:07:54.079Z,40
2017-09-12T13:09:03.256Z,55
2017-09-12T13:10:12.115Z,45
2017-09-12T13:11:20.960Z,50
2017-09-12T13:12:29.819Z,50
2017-09-12T13:13:38.664Z,50
2017-09-12T13:14:47.512Z,55
2017-09-12T13:15:56.363Z,55
2017-09-12T13:17:05.218Z,55
2017-09-12T13:18:14.073Z,55
2017-09-12T13:19:22.923Z,50
2017-09-12T13:20:31.773Z,50
2017-09-12T13:21:40.626Z,50
2017-09-12T13:22:49.474Z,45
2017-09-12T13:23:58.327Z,40
2017-09-12T13:25:07.181Z,40
2017-09-12T13:26:16.034Z,40
2017-09-12T13:27:24.880Z,40
2017-09-12T13:28:33.732Z,45
2017-09-12T13:29:42.583Z,50
2017-09-12T13:30:51.439Z,45
2017-09-12T13:32:00.292Z,50
2017-09-12T13:33:09.141Z,50
2017-09-12T13:34:17.990Z,50
2017-09-12T13:35:26.843Z,50
2017-09-12T13:36:35.692Z,50
2017-09-12T13:37:44.545Z,45
2017-09-12T13:38:53.395Z,50
2017-09-12T13:40:02.242Z,50
2017-09-12T13:41:11.090Z,50
2017-09-12T13:42:19.945Z,45
2017-09-12T13:43:28.797Z,45
2017-09-12T13:44:37.645Z,45
2017-09-12T13:45:46.497Z,45
2017-09-12T13:47:59.476Z,55
2017-09-12T13:49:08.332Z,55
2017-09-12T13:50:17.191Z,45
2017-09-12T13:51:26.052Z,45
2017-09-12T13:52:34.908Z,55
2017-09-12T13:53:43.765Z,50
2017-09-12T13:54:52.621Z,40
2017-09-12T13:56:01.483Z,40
2017-09-12T13:57:10.341Z,60
2017-09-12T13:58:19.198Z,45
2017-09-12T13:59:28.060Z,40
2017-09-12T14:00:36.917Z,50
2017-09-12T14:01:45.776Z,55
2017-09-12T14:02:54.637Z,50
2017-09-12T14:04:03.495Z,45
2017-09-12T14:05:12.350Z,45
2017-09-12T14:06:21.212Z,45
2017-09-12T14:07:30.067Z,40
2017-09-12T14:08:38.929Z,40
2017-09-12T14:09:48.113Z,35
2017-09-12T14:10:56.972Z,35
2017-09-12T14:12:05.831Z,35
2017-09-12T14:13:14.689Z,35
2017-09-12T14:14:23.554Z,35
2017-09-12T14:15:32.415Z,35
2017-09-12T14:16:41.275Z,35
2017-09-12T14:17:50.134Z,35
2017-09-12T14:18:58.989Z,35
2017-09-12T14:20:07.851Z,40
2017-09-12T14:21:16.711Z,35
2017-09-12T14:22:25.892Z,35
2017-09-12T14:23:34.749Z,35
2017-09-12T14:24:43.605Z,40
2017-09-12T14:25:52.462Z,50
2017-09-12T14:27:01.323Z,130
2017-09-12T14:28:10.184Z,105
2017-09-12T14:29:19.041Z,80
2017-09-12T14:30:27.904Z,85
2017-09-12T14:31:36.762Z,35
2017-09-12T14:32:45.619Z,35
2017-09-12T14:33:54.477Z,25
2017-09-12T14:35:03.336Z,15
2017-09-12T14:36:12.192Z,15
2017-09-12T14:37:21.053Z,15
2017-09-12T14:38:29.914Z,25
2017-09-12T14:39:38.769Z,20
2017-09-12T14:40:47.628Z,20
2017-09-12T14:41:56.492Z,20
2017-09-12T14:43:05.676Z,20
2017-09-12T14:44:14.536Z,20
2017-09-12T14:45:23.395Z,20
2017-09-12T14:46:32.250Z,20
2017-09-12T14:47:41.111Z,20
2017-09-12T14:48:49.972Z,20
2017-09-12T14:49:58.832Z,25
2017-09-12T14:51:07.695Z,30
2017-09-12T14:52:16.550Z,30
2017-09-12T14:53:25.406Z,30
2017-09-12T14:54:34.264Z,30
2017-09-12T14:55:43.125Z,25
2017-09-12T14:56:51.982Z,25
2017-09-12T14:58:00.840Z,25
2017-09-12T14:59:09.701Z,25
2017-09-12T15:00:18.557Z,20
2017-09-12T15:01:27.416Z,20
2017-09-12T15:02:36.273Z,15
2017-09-12T15:03:45.129Z,15
2017-09-12T15:04:53.986Z,10
2017-09-12T15:06:02.845Z,10
2017-09-12T15:07:11.702Z,10
2017-09-12T15:08:20.560Z,10
2017-09-12T15:09:29.420Z,15
2017-09-12T15:10:38.279Z,15
2017-09-12T15:11:47.140Z,20
2017-09-12T15:12:56.323Z,20
2017-09-12T15:14:05.178Z,25
2017-09-12T15:15:14.038Z,30
2017-09-12T15:16:22.895Z,30
2017-09-12T15:17:31.751Z,30
2017-09-12T15:18:40.608Z,30
2017-09-12T15:19:49.464Z,25
2017-09-12T15:20:58.322Z,25
2017-09-12T15:22:07.183Z,25
2017-09-12T15:23:16.042Z,25
2017-09-12T15:24:24.901Z,25
2017-09-12T15:25:33.757Z,25
2017-09-12T15:26:42.943Z,25
2017-09-12T15:27:51.798Z,25
2017-09-12T15:29:00.655Z,20
2017-09-12T15:30:09.516Z,25
2017-09-12T15:31:18.374Z,25
2017-09-12T15:32:27.232Z,30
2017-09-12T15:33:36.091Z,30
2017-09-12T15:34:44.949Z,30
2017-09-12T15:35:53.808Z,30
2017-09-12T15:37:02.670Z,30
2017-09-12T15:38:11.552Z,35
2017-09-12T15:39:20.386Z,35
2017-09-12T15:40:29.245Z,30
2017-09-12T15:41:38.104Z,30
2017-09-12T15:42:46.961Z,25
2017-09-12T15:43:55.819Z,20
2017-09-12T15:45:04.675Z,20
2017-09-12T15:46:13.532Z,15
2017-09-12T15:47:22.393Z,15
2017-09-12T15:48:31.250Z,15
2017-09-12T15:49:40.106Z,10
2017-09-12T15:50:48.964Z,15
2017-09-12T15:51:57.823Z,15
2017-09-12T15:53:06.677Z,15
2017-09-12T15:54:15.535Z,10
2017-09-12T15:55:24.391Z,10
2017-09-12T15:56:33.252Z,10
2017-09-12T15:57:42.108Z,15
2017-09-12T15:58:50.970Z,15
2017-09-12T15:59:59.831Z,15
2017-09-12T16:01:08.691Z,10
2017-09-12T16:02:17.548Z,10
2017-09-12T16:03:26.408Z,10
2017-09-12T16:04:35.273Z,10
2017-09-12T16:05:44.132Z,10
2017-09-12T16:06:52.990Z,10
2017-09-12T16:08:02.186Z,10
2017-09-12T16:09:11.045Z,10
2017-09-12T16:10:19.904Z,10
2017-09-12T16:11:28.764Z,10
2017-09-12T16:12:37.621Z,10
2017-09-12T16:13:46.481Z,10
2017-09-12T16:14:55.334Z,10
2017-09-12T16:16:04.192Z,10
2017-09-12T16:17:13.049Z,10
2017-09-12T16:18:21.909Z,10
2017-09-12T16:19:30.766Z,10
2017-09-12T16:20:39.629Z,10
2017-09-12T16:21:48.484Z,10
2017-09-12T16:22:57.340Z,10
2017-09-12T16:24:06.206Z,10
2017-09-12T16:25:15.067Z,10
2017-09-12T16:26:23.927Z,10
2017-09-12T16:27:32.790Z,10
2017-09-12T16:28:41.647Z,10
2017-09-12T16:29:50.502Z,10
2017-09-12T16:30:59.363Z,10
2017-09-12T16:32:08.548Z,10
2017-09-12T16:33:17.401Z,10
2017-09-12T16:34:26.260Z,10